createdAt,value
2023-04-10T00:00:36.255Z,1021.10
2023-04-10T00:01:36.389Z,1021.16
2023-04-10T00:02:36.431Z,1021.15
2023-04-10T00:03:36.335Z,1021.16
2023-04-10T00:04:36.311Z,1021.16
2023-04-10T00:05:36.197Z,1021.17
2023-04-10T00:06:36.185Z,1021.19
2023-04-10T00:07:36.207Z,1021.14
2023-04-10T00:08:36.181Z,1021.14
2023-04-10T00:09:36.152Z,1021.15
2023-04-10T00:10:36.152Z,1021.11
2023-04-10T00:11:36.140Z,1021.21
2023-04-10T00:12:36.114Z,1021.14
2023-04-10T00:13:36.154Z,1021.13
2023-04-10T00:14:36.095Z,1021.13
2023-04-10T00:15:36.087Z,1021.12
2023-04-10T00:16:36.137Z,1021.12
2023-04-10T00:17:36.196Z,1021.09
2023-04-10T00:18:36.059Z,1021.09
2023-04-10T00:19:36.042Z,1021.10
2023-04-10T00:20:36.072Z,1021.07
2023-04-10T00:21:36.012Z,1021.09
2023-04-10T00:22:36.008Z,1021.11
2023-04-10T00:23:36.052Z,1021.09
2023-04-10T00:24:35.986Z,1021.08
2023-04-10T00:25:35.974Z,1021.05
2023-04-10T00:26:35.960Z,1021.06
2023-04-10T00:27:36.008Z,1021.01
2023-04-10T00:28:35.945Z,1021.01
2023-04-10T00:29:35.955Z,1020.98
2023-04-10T00:30:35.950Z,1020.99
2023-04-10T00:31:35.957Z,1020.96
2023-04-10T00:32:35.931Z,1020.95
2023-04-10T00:33:35.882Z,1020.90
2023-04-10T00:34:35.942Z,1020.90
2023-04-10T00:35:35.888Z,1020.88
2023-04-10T00:36:35.877Z,1020.91
2023-04-10T00:37:35.854Z,1020.89
2023-04-10T00:38:36.779Z,1020.90
2023-04-10T00:39:35.849Z,1020.92
2023-04-10T00:40:35.866Z,1020.92
2023-04-10T00:41:35.802Z,1020.90
2023-04-10T00:42:35.787Z,1020.83
2023-04-10T00:43:35.825Z,1020.87
2023-04-10T00:44:35.771Z,1020.86
2023-04-10T00:45:35.770Z,1020.88
2023-04-10T00:46:36.087Z,1020.84
2023-04-10T00:47:35.731Z,1020.83
2023-04-10T00:48:35.720Z,1020.82
2023-04-10T00:49:35.733Z,1020.85
2023-04-10T00:50:35.703Z,1020.83
2023-04-10T00:51:35.707Z,1020.77
2023-04-10T00:52:35.671Z,1020.77
2023-04-10T00:53:35.686Z,1020.74
2023-04-10T00:54:35.653Z,1020.73
2023-04-10T00:55:35.671Z,1020.68
2023-04-10T00:56:35.626Z,1020.68
2023-04-10T00:57:35.620Z,1020.69
2023-04-10T00:58:35.671Z,1020.66
2023-04-10T00:59:35.617Z,1020.66
2023-04-10T01:00:35.587Z,1020.59
2023-04-10T01:01:35.645Z,1020.62
2023-04-10T01:02:35.688Z,1020.61
2023-04-10T01:03:36.105Z,1020.61
2023-04-10T01:04:35.662Z,1020.58
2023-04-10T01:05:35.526Z,1020.62
2023-04-10T01:06:35.533Z,1020.64
2023-04-10T01:07:35.535Z,1020.64
2023-04-10T01:08:35.508Z,1020.67
2023-04-10T01:09:35.484Z,1020.67
2023-04-10T01:10:35.484Z,1020.66
2023-04-10T01:11:35.484Z,1020.68
2023-04-10T01:12:35.447Z,1020.70
2023-04-10T01:13:35.461Z,1020.73
2023-04-10T01:14:35.431Z,1020.72
2023-04-10T01:15:36.260Z,1020.71
2023-04-10T01:16:35.438Z,1020.73
2023-04-10T01:17:35.467Z,1020.78
2023-04-10T01:18:35.392Z,1020.72
2023-04-10T01:19:35.393Z,1020.71
2023-04-10T01:20:35.362Z,1020.73
2023-04-10T01:21:35.359Z,1020.73
2023-04-10T01:22:35.363Z,1020.71
2023-04-10T01:23:35.348Z,1020.73
2023-04-10T01:24:35.316Z,1020.69
2023-04-10T01:25:35.313Z,1020.71
2023-04-10T01:26:35.296Z,1020.70
2023-04-10T01:27:35.324Z,1020.71
2023-04-10T01:28:35.274Z,1020.73
2023-04-10T01:29:35.262Z,1020.74
2023-04-10T01:30:35.263Z,1020.76
2023-04-10T01:31:35.250Z,1020.72
2023-04-10T01:32:35.273Z,1020.72
2023-04-10T01:33:35.215Z,1020.77
2023-04-10T01:34:35.242Z,1020.74
2023-04-10T01:35:35.222Z,1020.77
2023-04-10T01:36:35.208Z,1020.75
2023-04-10T01:37:35.173Z,1020.72
2023-04-10T01:38:35.158Z,1020.77
2023-04-10T01:39:35.187Z,1020.73
2023-04-10T01:40:35.154Z,1020.75
2023-04-10T01:41:35.147Z,1020.70
2023-04-10T01:42:35.126Z,1020.71
2023-04-10T01:43:35.874Z,1020.70
2023-04-10T01:44:35.117Z,1020.68
2023-04-10T01:45:35.094Z,1020.66
2023-04-10T01:46:35.090Z,1020.66
2023-04-10T01:47:35.123Z,1020.68
2023-04-10T01:48:35.179Z,1020.67
2023-04-10T01:49:35.043Z,1020.69
2023-04-10T01:50:35.064Z,1020.66
2023-04-10T01:51:35.047Z,1020.69
2023-04-10T01:52:35.073Z,1020.67
2023-04-10T01:53:35.008Z,1020.67
2023-04-10T01:54:34.986Z,1020.71
2023-04-10T01:55:34.990Z,1020.72
2023-04-10T01:56:34.998Z,1020.65
2023-04-10T01:57:34.957Z,1020.65
2023-04-10T01:58:34.966Z,1020.62
2023-04-10T01:59:34.964Z,1020.65
2023-04-10T02:00:35.121Z,1020.60
2023-04-10T02:01:34.999Z,1020.60
2023-04-10T02:02:35.057Z,1020.60
2023-04-10T02:03:35.068Z,1020.60
2023-04-10T02:04:35.030Z,1020.61
2023-04-10T02:05:34.893Z,1020.64
2023-04-10T02:06:34.880Z,1020.59
2023-04-10T02:07:34.994Z,1020.59
2023-04-10T02:08:42.851Z,1020.58
2023-04-10T02:09:34.886Z,1020.61
2023-04-10T02:10:34.812Z,1020.59
2023-04-10T02:11:34.816Z,1020.56
2023-04-10T02:12:34.795Z,1020.59
2023-04-10T02:13:34.787Z,1020.58
2023-04-10T02:14:34.774Z,1020.61
2023-04-10T02:15:34.825Z,1020.60
2023-04-10T02:16:34.964Z,1020.61
2023-04-10T02:17:34.845Z,1020.58
2023-04-10T02:18:34.742Z,1020.63
2023-04-10T02:19:34.712Z,1020.59
2023-04-10T02:20:34.700Z,1020.66
2023-04-10T02:21:34.710Z,1020.62
2023-04-10T02:22:34.673Z,1020.59
2023-04-10T02:23:34.667Z,1020.60
2023-04-10T02:24:34.658Z,1020.56
2023-04-10T02:25:34.653Z,1020.57
2023-04-10T02:26:34.658Z,1020.57
2023-04-10T02:27:34.620Z,1020.54
2023-04-10T02:28:34.610Z,1020.55
2023-04-10T02:29:34.605Z,1020.57
2023-04-10T02:30:34.609Z,1020.50
2023-04-10T02:31:34.618Z,1020.56
2023-04-10T02:32:34.598Z,1020.56
2023-04-10T02:33:34.669Z,1020.55
2023-04-10T02:34:34.547Z,1020.58
2023-04-10T02:35:34.568Z,1020.59
2023-04-10T02:36:34.874Z,1020.62
2023-04-10T02:37:34.512Z,1020.61
2023-04-10T02:38:34.543Z,1020.60
2023-04-10T02:39:34.494Z,1020.62
2023-04-10T02:40:34.496Z,1020.60
2023-04-10T02:41:34.483Z,1020.64
2023-04-10T02:42:34.456Z,1020.65
2023-04-10T02:43:34.479Z,1020.61
2023-04-10T02:44:34.435Z,1020.65
2023-04-10T02:45:34.424Z,1020.63
2023-04-10T02:46:34.458Z,1020.64
2023-04-10T02:47:34.505Z,1020.64
2023-04-10T02:48:34.664Z,1020.63
2023-04-10T02:49:34.390Z,1020.69
2023-04-10T02:50:34.413Z,1020.67
2023-04-10T02:51:34.379Z,1020.66
2023-04-10T02:52:34.352Z,1020.71
2023-04-10T02:53:34.342Z,1020.68
2023-04-10T02:54:34.328Z,1020.69
2023-04-10T02:55:34.316Z,1020.66
2023-04-10T02:56:34.312Z,1020.78
2023-04-10T02:57:34.308Z,1020.72
2023-04-10T02:58:34.280Z,1020.70
2023-04-10T02:59:34.272Z,1020.72
2023-04-10T03:00:34.265Z,1020.70
2023-04-10T03:01:34.369Z,1020.73
2023-04-10T03:02:34.387Z,1020.72
2023-04-10T03:03:34.345Z,1020.74
2023-04-10T03:04:34.269Z,1020.78
2023-04-10T03:05:34.208Z,1020.76
2023-04-10T03:06:34.193Z,1020.73
2023-04-10T03:07:34.390Z,1020.76
2023-04-10T03:08:34.170Z,1020.73
2023-04-10T03:09:34.204Z,1020.75
2023-04-10T03:10:34.166Z,1020.76
2023-04-10T03:11:34.138Z,1020.77
2023-04-10T03:12:34.155Z,1020.75
2023-04-10T03:13:34.134Z,1020.76
2023-04-10T03:14:34.102Z,1020.77
2023-04-10T03:15:34.097Z,1020.76
2023-04-10T03:16:34.217Z,1020.79
2023-04-10T03:17:34.098Z,1020.78
2023-04-10T03:18:34.094Z,1020.82
2023-04-10T03:19:34.068Z,1020.79
2023-04-10T03:20:34.050Z,1020.80
2023-04-10T03:21:34.034Z,1020.77
2023-04-10T03:22:34.029Z,1020.76
2023-04-10T03:23:34.006Z,1020.69
2023-04-10T03:24:34.038Z,1020.74
2023-04-10T03:25:33.998Z,1020.73
2023-04-10T03:26:34.026Z,1020.73
2023-04-10T03:27:33.963Z,1020.69
2023-04-10T03:28:33.975Z,1020.70
2023-04-10T03:29:33.943Z,1020.71
2023-04-10T03:30:33.928Z,1020.71
2023-04-10T03:31:33.928Z,1020.70
2023-04-10T03:32:33.907Z,1020.71
2023-04-10T03:33:33.975Z,1020.73
2023-04-10T03:34:33.912Z,1020.69
2023-04-10T03:35:33.939Z,1020.70
2023-04-10T03:36:33.856Z,1020.70
2023-04-10T03:37:33.866Z,1020.68
2023-04-10T03:38:33.851Z,1020.70
2023-04-10T03:39:33.834Z,1020.68
2023-04-10T03:40:33.813Z,1020.67
2023-04-10T03:41:33.808Z,1020.68
2023-04-10T03:42:33.798Z,1020.69
2023-04-10T03:43:33.823Z,1020.73
2023-04-10T03:44:33.778Z,1020.67
2023-04-10T03:45:33.761Z,1020.70
2023-04-10T03:46:33.765Z,1020.67
2023-04-10T03:47:33.872Z,1020.71
2023-04-10T03:48:33.728Z,1020.72
2023-04-10T03:49:33.719Z,1020.72
2023-04-10T03:50:33.702Z,1020.71
2023-04-10T03:51:33.732Z,1020.71
2023-04-10T03:52:33.681Z,1020.68
2023-04-10T03:53:35.130Z,1020.73
2023-04-10T03:54:33.656Z,1020.74
2023-04-10T03:55:33.649Z,1020.75
2023-04-10T03:56:33.643Z,1020.78
2023-04-10T03:57:33.635Z,1020.74
2023-04-10T03:58:33.613Z,1020.76
2023-04-10T03:59:38.640Z,1020.78
2023-04-10T04:00:34.600Z,1020.76
2023-04-10T04:01:33.621Z,1020.76
2023-04-10T04:02:33.747Z,1020.77
2023-04-10T04:03:33.674Z,1020.77
2023-04-10T04:04:33.653Z,1020.76
2023-04-10T04:05:33.538Z,1020.79
2023-04-10T04:06:33.515Z,1020.76
2023-04-10T04:07:33.528Z,1020.78
2023-04-10T04:08:33.508Z,1020.78
2023-04-10T04:09:33.602Z,1020.78
2023-04-10T04:10:33.482Z,1020.75
2023-04-10T04:11:33.467Z,1020.78
2023-04-10T04:12:33.467Z,1020.79
2023-04-10T04:13:33.448Z,1020.77
2023-04-10T04:14:33.429Z,1020.75
2023-04-10T04:15:33.416Z,1020.74
2023-04-10T04:16:33.448Z,1020.76
2023-04-10T04:17:33.445Z,1020.73
2023-04-10T04:18:33.384Z,1020.75
2023-04-10T04:19:33.373Z,1020.75
2023-04-10T04:20:33.364Z,1020.72
2023-04-10T04:21:33.388Z,1020.75
2023-04-10T04:22:33.348Z,1020.76
2023-04-10T04:23:33.346Z,1020.80
2023-04-10T04:24:33.323Z,1020.80
2023-04-10T04:25:33.309Z,1020.82
2023-04-10T04:26:33.292Z,1020.74
2023-04-10T04:27:33.302Z,1020.78
2023-04-10T04:28:33.333Z,1020.78
2023-04-10T04:29:33.284Z,1020.75
2023-04-10T04:30:33.249Z,1020.74
2023-04-10T04:31:33.306Z,1020.74
2023-04-10T04:32:33.306Z,1020.73
2023-04-10T04:33:33.229Z,1020.74
2023-04-10T04:34:33.222Z,1020.73
2023-04-10T04:35:33.230Z,1020.73
2023-04-10T04:36:33.184Z,1020.70
2023-04-10T04:37:33.168Z,1020.71
2023-04-10T04:38:33.165Z,1020.72
2023-04-10T04:39:33.189Z,1020.75
2023-04-10T04:40:33.235Z,1020.76
2023-04-10T04:41:33.131Z,1020.77
2023-04-10T04:42:33.123Z,1020.77
2023-04-10T04:43:33.121Z,1020.76
2023-04-10T04:44:33.121Z,1020.78
2023-04-10T04:45:33.083Z,1020.77
2023-04-10T04:46:33.071Z,1020.79
2023-04-10T04:47:33.099Z,1020.78
2023-04-10T04:48:33.070Z,1020.76
2023-04-10T04:49:33.064Z,1020.79
2023-04-10T04:50:33.027Z,1020.80
2023-04-10T04:51:33.027Z,1020.79
2023-04-10T04:52:33.019Z,1020.81
2023-04-10T04:53:32.997Z,1020.81
2023-04-10T04:54:33.008Z,1020.76
2023-04-10T04:55:33.008Z,1020.77
2023-04-10T04:56:32.961Z,1020.81
2023-04-10T04:57:32.952Z,1020.77
2023-04-10T04:58:32.971Z,1020.75
2023-04-10T04:59:32.937Z,1020.79
2023-04-10T05:00:32.967Z,1020.76
2023-04-10T05:01:33.018Z,1020.77
2023-04-10T05:02:33.061Z,1020.73
2023-04-10T05:03:33.204Z,1020.71
2023-04-10T05:04:32.883Z,1020.72
2023-04-10T05:05:32.902Z,1020.70
2023-04-10T05:06:32.850Z,1020.71
2023-04-10T05:07:33.059Z,1020.71
2023-04-10T05:08:32.832Z,1020.71
2023-04-10T05:09:32.840Z,1020.70
2023-04-10T05:10:32.821Z,1020.71
2023-04-10T05:11:32.817Z,1020.69
2023-04-10T05:12:32.784Z,1020.69
2023-04-10T05:13:32.764Z,1020.69
2023-04-10T05:14:32.780Z,1020.73
2023-04-10T05:15:32.802Z,1020.66
2023-04-10T05:16:32.744Z,1020.68
2023-04-10T05:17:32.793Z,1020.67
2023-04-10T05:18:32.744Z,1020.64
2023-04-10T05:19:32.757Z,1020.64
2023-04-10T05:20:32.686Z,1020.62
2023-04-10T05:21:32.679Z,1020.66
2023-04-10T05:22:32.682Z,1020.66
2023-04-10T05:23:32.678Z,1020.66
2023-04-10T05:24:32.704Z,1020.72
2023-04-10T05:25:32.639Z,1020.70
2023-04-10T05:26:32.632Z,1020.73
2023-04-10T05:27:32.644Z,1020.75
2023-04-10T05:28:32.908Z,1020.74
2023-04-10T05:29:32.602Z,1020.78
2023-04-10T05:30:32.576Z,1020.76
2023-04-10T05:31:32.720Z,1020.82
2023-04-10T05:32:32.632Z,1020.77
2023-04-10T05:33:32.564Z,1020.80
2023-04-10T05:34:32.552Z,1020.84
2023-04-10T05:35:32.574Z,1020.81
2023-04-10T05:36:32.523Z,1020.85
2023-04-10T05:37:32.622Z,1020.80
2023-04-10T05:38:32.510Z,1020.82
2023-04-10T05:39:32.493Z,1020.82
2023-04-10T05:40:32.513Z,1020.84
2023-04-10T05:41:32.472Z,1020.79
2023-04-10T05:42:32.454Z,1020.82
2023-04-10T05:43:32.483Z,1020.83
2023-04-10T05:44:32.433Z,1020.82
2023-04-10T05:45:32.414Z,1020.83
2023-04-10T05:46:32.483Z,1020.83
2023-04-10T05:47:32.437Z,1020.77
2023-04-10T05:48:32.384Z,1020.78
2023-04-10T05:49:32.376Z,1020.77
2023-04-10T05:50:32.363Z,1020.76
2023-04-10T05:51:32.360Z,1020.74
2023-04-10T05:52:32.344Z,1020.67
2023-04-10T05:53:32.356Z,1020.74
2023-04-10T05:54:32.335Z,1020.74
2023-04-10T05:55:32.345Z,1020.78
2023-04-10T05:56:32.293Z,1020.76
2023-04-10T05:57:32.515Z,1020.78
2023-04-10T05:58:32.271Z,1020.71
2023-04-10T05:59:32.321Z,1020.72
2023-04-10T06:00:32.279Z,1020.73
2023-04-10T06:01:32.238Z,1020.68
2023-04-10T06:02:32.496Z,1020.68
2023-04-10T06:03:32.433Z,1020.65
2023-04-10T06:04:32.312Z,1020.65
2023-04-10T06:05:32.206Z,1020.62
2023-04-10T06:06:32.185Z,1020.55
2023-04-10T06:07:32.285Z,1020.58
2023-04-10T06:08:32.259Z,1020.64
2023-04-10T06:09:32.890Z,1020.64
2023-04-10T06:10:32.432Z,1020.64
2023-04-10T06:11:32.246Z,1020.63
2023-04-10T06:12:32.944Z,1020.64
2023-04-10T06:13:32.441Z,1020.63
2023-04-10T06:14:32.095Z,1020.62
2023-04-10T06:15:32.148Z,1020.59
2023-04-10T06:16:32.183Z,1020.59
2023-04-10T06:17:32.108Z,1020.54
2023-04-10T06:18:32.325Z,1020.59
2023-04-10T06:19:32.055Z,1020.58
2023-04-10T06:20:32.037Z,1020.60
2023-04-10T06:21:32.029Z,1020.58
2023-04-10T06:22:32.023Z,1020.57
2023-04-10T06:23:32.204Z,1020.61
2023-04-10T06:24:31.989Z,1020.62
2023-04-10T06:25:31.975Z,1020.58
2023-04-10T06:26:31.992Z,1020.63
2023-04-10T06:27:31.960Z,1020.57
2023-04-10T06:28:31.953Z,1020.58
2023-04-10T06:29:31.937Z,1020.57
2023-04-10T06:30:31.917Z,1020.60
2023-04-10T06:31:32.060Z,1020.60
2023-04-10T06:32:31.933Z,1020.58
2023-04-10T06:33:31.880Z,1020.62
2023-04-10T06:34:31.872Z,1020.61
2023-04-10T06:35:31.913Z,1020.56
2023-04-10T06:36:31.849Z,1020.56
2023-04-10T06:37:31.846Z,1020.50
2023-04-10T06:38:31.856Z,1020.56
2023-04-10T06:39:31.828Z,1020.50
2023-04-10T06:40:31.836Z,1020.51
2023-04-10T06:41:31.789Z,1020.53
2023-04-10T06:42:31.779Z,1020.55
2023-04-10T06:43:31.774Z,1020.54
2023-04-10T06:44:31.764Z,1020.56
2023-04-10T06:45:31.762Z,1020.53
2023-04-10T06:46:31.817Z,1020.57
2023-04-10T06:47:31.989Z,1020.56
2023-04-10T06:48:31.718Z,1020.55
2023-04-10T06:49:31.716Z,1020.51
2023-04-10T06:50:33.449Z,1020.48
2023-04-10T06:51:31.689Z,1020.48
2023-04-10T06:52:31.674Z,1020.48
2023-04-10T06:53:31.665Z,1020.45
2023-04-10T06:54:31.652Z,1020.41
2023-04-10T06:55:31.662Z,1020.40
2023-04-10T06:56:31.639Z,1020.44
2023-04-10T06:57:31.616Z,1020.46
2023-04-10T06:58:31.609Z,1020.42
2023-04-10T06:59:31.606Z,1020.42
2023-04-10T07:00:31.601Z,1020.46
2023-04-10T07:01:31.577Z,1020.42
2023-04-10T07:02:31.637Z,1020.43
2023-04-10T07:03:31.640Z,1020.41
2023-04-10T07:04:31.556Z,1020.41
2023-04-10T07:05:31.533Z,1020.42
2023-04-10T07:06:31.526Z,1020.34
2023-04-10T07:07:31.539Z,1020.38
2023-04-10T07:08:31.493Z,1020.37
2023-04-10T07:09:31.486Z,1020.30
2023-04-10T07:10:31.482Z,1020.43
2023-04-10T07:11:31.799Z,1020.40
2023-04-10T07:12:31.449Z,1020.45
2023-04-10T07:13:31.452Z,1020.42
2023-04-10T07:14:31.428Z,1020.35
2023-04-10T07:15:31.450Z,1020.36
2023-04-10T07:16:31.429Z,1020.37
2023-04-10T07:17:31.430Z,1020.37
2023-04-10T07:18:31.580Z,1020.36
2023-04-10T07:19:31.460Z,1020.36
2023-04-10T07:20:31.411Z,1020.40
2023-04-10T07:21:31.353Z,1020.40
2023-04-10T07:22:31.363Z,1020.44
2023-04-10T07:23:31.329Z,1020.44
2023-04-10T07:24:31.321Z,1020.35
2023-04-10T07:25:31.306Z,1020.37
2023-04-10T07:26:31.357Z,1020.43
2023-04-10T07:27:31.312Z,1020.42
2023-04-10T07:28:31.328Z,1020.46
2023-04-10T07:29:31.267Z,1020.47
2023-04-10T07:30:31.267Z,1020.46
2023-04-10T07:31:31.360Z,1020.43
2023-04-10T07:32:31.324Z,1020.44
2023-04-10T07:33:31.266Z,1020.41
2023-04-10T07:34:31.222Z,1020.41
2023-04-10T07:35:31.322Z,1020.42
2023-04-10T07:36:31.190Z,1020.42
2023-04-10T07:37:31.959Z,1020.43
2023-04-10T07:38:31.185Z,1020.46
2023-04-10T07:39:31.166Z,1020.42
2023-04-10T07:40:31.174Z,1020.39
2023-04-10T07:41:31.193Z,1020.31
2023-04-10T07:42:31.121Z,1020.31
2023-04-10T07:43:31.116Z,1020.33
2023-04-10T07:44:31.104Z,1020.28
2023-04-10T07:45:31.127Z,1020.27
2023-04-10T07:46:31.110Z,1020.30
2023-04-10T07:47:31.134Z,1020.42
2023-04-10T07:48:31.060Z,1020.30
2023-04-10T07:49:31.137Z,1020.32
2023-04-10T07:50:31.037Z,1020.39
2023-04-10T07:51:31.053Z,1020.38
2023-04-10T07:52:31.031Z,1020.42
2023-04-10T07:53:31.009Z,1020.32
2023-04-10T07:54:30.994Z,1020.31
2023-04-10T07:55:30.978Z,1020.31
2023-04-10T07:56:30.995Z,1020.30
2023-04-10T07:57:30.969Z,1020.27
2023-04-10T07:58:30.965Z,1020.36
2023-04-10T07:59:30.958Z,1020.34
2023-04-10T08:00:30.933Z,1020.36
2023-04-10T08:01:30.974Z,1020.36
2023-04-10T08:02:31.041Z,1020.32
2023-04-10T08:03:31.113Z,1020.36
2023-04-10T08:04:31.181Z,1020.38
2023-04-10T08:05:31.149Z,1020.36
2023-04-10T08:06:30.877Z,1020.35
2023-04-10T08:07:30.886Z,1020.40
2023-04-10T08:08:30.954Z,1020.33
2023-04-10T08:09:30.871Z,1020.32
2023-04-10T08:10:30.824Z,1020.31
2023-04-10T08:11:30.873Z,1020.32
2023-04-10T08:12:30.806Z,1020.29
2023-04-10T08:13:30.785Z,1020.32
2023-04-10T08:14:30.775Z,1020.28
2023-04-10T08:15:30.765Z,1020.31
2023-04-10T08:16:30.785Z,1020.27
2023-04-10T08:17:30.790Z,1020.34
2023-04-10T08:18:30.754Z,1020.32
2023-04-10T08:19:30.717Z,1020.35
2023-04-10T08:20:30.713Z,1020.34
2023-04-10T08:22:37.786Z,1020.27
2023-04-10T08:23:30.670Z,1020.25
2023-04-10T08:24:30.665Z,1020.26
2023-04-10T08:25:30.654Z,1020.27
2023-04-10T08:26:30.657Z,1020.27
2023-04-10T08:27:30.658Z,1020.27
2023-04-10T08:28:30.624Z,1020.20
2023-04-10T08:29:30.610Z,1020.20
2023-04-10T08:30:30.647Z,1020.25
2023-04-10T08:31:30.778Z,1020.22
2023-04-10T08:32:31.020Z,1020.27
2023-04-10T08:33:30.572Z,1020.32
2023-04-10T08:34:30.558Z,1020.20
2023-04-10T08:35:30.540Z,1020.25
2023-04-10T08:36:30.561Z,1020.29
2023-04-10T08:37:30.537Z,1020.28
2023-04-10T08:38:30.533Z,1020.28
2023-04-10T08:39:30.523Z,1020.29
2023-04-10T08:40:30.498Z,1020.25
2023-04-10T08:41:30.480Z,1020.33
2023-04-10T08:42:30.485Z,1020.30
2023-04-10T08:43:30.469Z,1020.29
2023-04-10T08:44:30.496Z,1020.22
2023-04-10T08:45:30.445Z,1020.28
2023-04-10T08:46:30.514Z,1020.24
2023-04-10T08:47:30.457Z,1020.22
2023-04-10T08:48:30.403Z,1020.22
2023-04-10T08:49:30.407Z,1020.24
2023-04-10T08:50:30.401Z,1020.27
2023-04-10T08:51:30.442Z,1020.18
2023-04-10T08:52:30.367Z,1020.24
2023-04-10T08:53:30.357Z,1020.19
2023-04-10T08:54:30.376Z,1020.24
2023-04-10T08:55:30.349Z,1020.15
2023-04-10T08:56:30.324Z,1020.04
2023-04-10T08:57:30.320Z,1020.14
2023-04-10T08:58:30.321Z,1020.11
2023-04-10T08:59:30.500Z,1020.09
2023-04-10T09:00:30.308Z,1020.09
2023-04-10T09:01:30.320Z,1020.04
2023-04-10T09:02:30.434Z,1020.12
2023-04-10T09:03:30.500Z,1020.08
2023-04-10T09:04:30.481Z,1020.10
2023-04-10T09:05:30.228Z,1020.17
2023-04-10T09:06:30.222Z,1020.12
2023-04-10T09:07:30.217Z,1020.07
2023-04-10T09:08:30.197Z,1020.08
2023-04-10T09:09:30.201Z,1020.04
2023-04-10T09:10:31.196Z,1020.10
2023-04-10T09:11:30.170Z,1020.10
2023-04-10T09:12:30.162Z,1020.07
2023-04-10T09:13:30.166Z,1020.00
2023-04-10T09:14:30.140Z,1020.02
2023-04-10T09:15:31.109Z,1020.07
2023-04-10T09:16:30.471Z,1019.94
2023-04-10T09:17:30.161Z,1019.92
2023-04-10T09:18:30.095Z,1019.91
2023-04-10T09:19:30.090Z,1019.87
2023-04-10T09:20:31.003Z,1019.95
2023-04-10T09:21:30.079Z,1019.78
2023-04-10T09:22:30.062Z,1019.80
2023-04-10T09:23:30.044Z,1019.84
2023-04-10T09:24:30.044Z,1019.86
2023-04-10T09:25:30.027Z,1019.88
2023-04-10T09:26:30.038Z,1019.82
2023-04-10T09:27:30.039Z,1019.79
2023-04-10T09:28:29.999Z,1019.78
2023-04-10T09:29:30.000Z,1019.83
2023-04-10T09:30:29.997Z,1019.81
2023-04-10T09:31:29.969Z,1019.76
2023-04-10T09:32:30.508Z,1019.67
2023-04-10T09:33:29.987Z,1019.71
2023-04-10T09:34:29.939Z,1019.75
2023-04-10T09:35:29.917Z,1019.62
2023-04-10T09:36:29.922Z,1019.66
2023-04-10T09:37:29.906Z,1019.68
2023-04-10T09:38:29.901Z,1019.60
2023-04-10T09:39:29.876Z,1019.63
2023-04-10T09:40:29.867Z,1019.66
2023-04-10T09:41:29.853Z,1019.67
2023-04-10T09:42:29.890Z,1019.58
2023-04-10T09:43:29.848Z,1019.58
2023-04-10T09:44:29.852Z,1019.67
2023-04-10T09:45:29.817Z,1019.62
2023-04-10T09:46:29.832Z,1019.61
2023-04-10T09:47:29.839Z,1019.57
2023-04-10T09:48:29.806Z,1019.49
2023-04-10T09:49:29.777Z,1019.47
2023-04-10T09:50:29.763Z,1019.46
2023-04-10T09:51:29.774Z,1019.52
2023-04-10T09:52:29.759Z,1019.48
2023-04-10T09:53:29.728Z,1019.58
2023-04-10T09:54:29.715Z,1019.49
2023-04-10T09:55:29.716Z,1019.49
2023-04-10T09:56:29.700Z,1019.44
2023-04-10T09:57:29.766Z,1019.47
2023-04-10T09:58:29.827Z,1019.40
2023-04-10T09:59:29.669Z,1019.37
2023-04-10T10:00:29.668Z,1019.37
2023-04-10T10:01:29.678Z,1019.36
2023-04-10T10:02:29.829Z,1019.34
2023-04-10T10:03:29.705Z,1019.33
2023-04-10T10:04:29.633Z,1019.37
2023-04-10T10:05:29.671Z,1019.24
2023-04-10T10:06:29.604Z,1019.31
2023-04-10T10:07:29.618Z,1019.32
2023-04-10T10:08:29.625Z,1019.26
2023-04-10T10:09:29.608Z,1019.23
2023-04-10T10:10:29.591Z,1019.23
2023-04-10T10:11:29.543Z,1019.25
2023-04-10T10:12:29.586Z,1019.24
2023-04-10T10:13:29.538Z,1019.24
2023-04-10T10:14:29.536Z,1019.27
2023-04-10T10:15:29.507Z,1019.27
2023-04-10T10:16:29.518Z,1019.14
2023-04-10T10:17:29.511Z,1019.17
2023-04-10T10:18:37.208Z,1019.22
2023-04-10T10:19:29.534Z,1019.27
2023-04-10T10:20:29.458Z,1019.19
2023-04-10T10:21:29.445Z,1019.15
2023-04-10T10:22:29.452Z,1019.05
2023-04-10T10:23:29.425Z,1019.16
2023-04-10T10:24:29.499Z,1019.13
2023-04-10T10:25:29.416Z,1019.08
2023-04-10T10:26:29.426Z,1019.09
2023-04-10T10:27:29.398Z,1019.03
2023-04-10T10:28:29.381Z,1019.05
2023-04-10T10:29:29.404Z,1019.07
2023-04-10T10:30:30.716Z,1019.13
2023-04-10T10:31:29.410Z,1019.05
2023-04-10T10:32:29.368Z,1019.06
2023-04-10T10:33:29.330Z,1019.02
2023-04-10T10:34:29.326Z,1019.07
2023-04-10T10:35:30.047Z,1019.07
2023-04-10T10:36:29.552Z,1019.01
2023-04-10T10:37:29.984Z,1019.03
2023-04-10T10:38:29.297Z,1019.01
2023-04-10T10:39:29.267Z,1019.00
2023-04-10T10:40:29.257Z,1018.99
2023-04-10T10:41:29.253Z,1018.96
2023-04-10T10:42:29.248Z,1019.02
2023-04-10T10:43:29.234Z,1018.97
2023-04-10T10:44:29.234Z,1018.92
2023-04-10T10:45:29.286Z,1018.91
2023-04-10T10:46:29.217Z,1018.86
2023-04-10T10:47:29.231Z,1018.88
2023-04-10T10:48:29.208Z,1018.85
2023-04-10T10:49:29.174Z,1018.89
2023-04-10T10:50:29.158Z,1018.85
2023-04-10T10:51:29.172Z,1018.80
2023-04-10T10:52:29.136Z,1018.77
2023-04-10T10:53:29.131Z,1018.85
2023-04-10T10:54:29.125Z,1018.71
2023-04-10T10:55:29.277Z,1018.70
2023-04-10T10:56:29.120Z,1018.77
2023-04-10T10:57:29.104Z,1018.62
2023-04-10T10:58:29.078Z,1018.70
2023-04-10T10:59:29.071Z,1018.67
2023-04-10T11:00:30.034Z,1018.65
2023-04-10T11:01:29.108Z,1018.63
2023-04-10T11:02:29.226Z,1018.56
2023-04-10T11:03:29.141Z,1018.56
2023-04-10T11:04:29.017Z,1018.64
2023-04-10T11:05:29.009Z,1018.61
2023-04-10T11:06:28.998Z,1018.50
2023-04-10T11:07:29.006Z,1018.50
2023-04-10T11:08:28.977Z,1018.46
2023-04-10T11:09:28.973Z,1018.49
2023-04-10T11:10:29.386Z,1018.47
2023-04-10T11:11:28.947Z,1018.35
2023-04-10T11:12:28.954Z,1018.44
2023-04-10T11:13:28.932Z,1018.53
2023-04-10T11:14:29.135Z,1018.59
2023-04-10T11:15:28.911Z,1018.44
2023-04-10T11:16:28.974Z,1018.49
2023-04-10T11:17:29.001Z,1018.47
2023-04-10T11:18:28.905Z,1018.44
2023-04-10T11:19:28.878Z,1018.37
2023-04-10T11:20:28.854Z,1018.43
2023-04-10T11:21:28.891Z,1018.40
2023-04-10T11:22:28.975Z,1018.38
2023-04-10T11:23:28.849Z,1018.36
2023-04-10T11:24:28.815Z,1018.37
2023-04-10T11:25:28.814Z,1018.30
2023-04-10T11:26:28.798Z,1018.40
2023-04-10T11:27:28.803Z,1018.39
2023-04-10T11:28:28.777Z,1018.43
2023-04-10T11:29:28.771Z,1018.32
2023-04-10T11:30:28.776Z,1018.32
2023-04-10T11:31:28.809Z,1018.32
2023-04-10T11:32:28.769Z,1018.25
2023-04-10T11:33:28.817Z,1018.26
2023-04-10T11:34:28.733Z,1018.24
2023-04-10T11:35:28.748Z,1018.23
2023-04-10T11:36:28.705Z,1018.22
2023-04-10T11:37:28.705Z,1018.20
2023-04-10T11:38:28.753Z,1018.16
2023-04-10T11:39:28.676Z,1018.23
2023-04-10T11:40:28.660Z,1018.13
2023-04-10T11:41:28.682Z,1018.23
2023-04-10T11:42:28.637Z,1018.18
2023-04-10T11:43:28.675Z,1018.08
2023-04-10T11:44:28.604Z,1018.15
2023-04-10T11:45:29.098Z,1017.96
2023-04-10T11:46:28.715Z,1018.10
2023-04-10T11:47:28.633Z,1018.20
2023-04-10T11:48:28.570Z,1018.14
2023-04-10T11:49:28.595Z,1018.08
2023-04-10T11:50:28.580Z,1017.96
2023-04-10T11:51:28.544Z,1017.90
2023-04-10T11:52:28.697Z,1017.90
2023-04-10T11:53:28.526Z,1017.89
2023-04-10T11:54:28.605Z,1017.93
2023-04-10T11:55:28.500Z,1017.95
2023-04-10T11:56:28.488Z,1017.99
2023-04-10T11:57:28.512Z,1017.95
2023-04-10T11:58:28.484Z,1017.98
2023-04-10T11:59:28.458Z,1017.91
2023-04-10T12:00:28.460Z,1017.57
2023-04-10T12:01:28.442Z,1017.63
2023-04-10T12:02:28.542Z,1017.64
2023-04-10T12:03:28.572Z,1017.82
2023-04-10T12:04:28.722Z,1017.75
2023-04-10T12:05:28.397Z,1017.71
2023-04-10T12:06:28.411Z,1017.69